Time;durP1;ratioP1;P1;durP2;ratioP2;P2;SDS_P1;SDS_P2;PMS_P1;PMS_P2;Temp;Humidity;BMP_temperature;BMP_pressure;BME280_temperature;BME280_humidity;BME280_pressure;Samples;Min_cycle;Max_cycle;Signal;HPM_P1;HPM_P2
2023/12/18 00:00:19;;;;;;;4.75;2.80;;;;;;;5.86;51.82;100524.13;4941137;28;20074;-76
2023/12/18 00:02:45;;;;;;;6.72;2.63;;;;;;;5.87;51.46;100526.66;4957166;28;20057;-76
2023/12/18 00:05:10;;;;;;;5.43;2.55;;;;;;;5.89;51.63;100530.06;4957032;28;20031;-75
2023/12/18 00:07:36;;;;;;;4.43;2.58;;;;;;;5.89;51.54;100529.22;4940662;28;20030;-74
2023/12/18 00:10:01;;;;;;;6.90;3.17;;;;;;;5.87;51.99;100534.44;4956517;28;20423;-75
2023/12/18 00:12:27;;;;;;;5.25;2.85;;;;;;;5.83;51.87;100525.03;4940490;28;20027;-74
2023/12/18 00:14:52;;;;;;;10.70;3.13;;;;;;;5.84;51.37;100521.56;4924303;28;20043;-75
2023/12/18 00:17:18;;;;;;;9.15;3.30;;;;;;;5.84;51.94;100525.91;4940455;28;20055;-75
2023/12/18 00:19:43;;;;;;;6.35;3.55;;;;;;;5.83;51.57;100535.41;4924691;28;20097;-76
2023/12/18 00:22:09;;;;;;;6.28;3.80;;;;;;;5.80;51.81;100536.38;4924941;28;20042;-75
2023/12/18 00:24:34;;;;;;;5.82;3.53;;;;;;;5.78;51.59;100530.34;4956267;28;20037;-76
2023/12/18 00:27:00;;;;;;;7.40;4.15;;;;;;;5.75;51.65;100527.00;4923755;28;20152;-76
2023/12/18 00:29:25;;;;;;;6.35;3.70;;;;;;;5.72;51.70;100519.31;4924322;28;20081;-76
2023/12/18 00:31:51;;;;;;;8.18;4.18;;;;;;;5.75;51.74;100524.41;4940771;28;20485;-76
2023/12/18 00:34:16;;;;;;;5.68;3.50;;;;;;;5.67;51.50;100522.03;4940314;28;20093;-76
2023/12/18 00:36:45;;;;;;;9.07;4.20;;;;;;;5.66;51.85;100528.13;4939509;28;20039;-76
2023/12/18 00:39:11;;;;;;;7.75;4.20;;;;;;;5.66;51.84;100535.03;4924039;28;20114;-76
2023/12/18 00:41:37;;;;;;;7.60;3.70;;;;;;;5.69;52.12;100538.38;4940477;28;20039;-75
2023/12/18 00:44:03;;;;;;;6.20;3.67;;;;;;;5.68;51.50;100533.28;4956077;28;20023;-75
2023/12/18 00:46:29;;;;;;;5.82;3.42;;;;;;;5.61;51.56;100523.06;4956481;28;20041;-75
2023/12/18 00:48:54;;;;;;;9.48;3.97;;;;;;;5.66;52.03;100524.66;4956255;28;20030;-75
2023/12/18 00:51:20;;;;;;;7.43;3.50;;;;;;;5.64;51.76;100524.69;4955382;28;20054;-75
2023/12/18 00:53:46;;;;;;;6.50;3.42;;;;;;;5.58;51.54;100527.47;4956200;28;20471;-76
2023/12/18 00:56:11;;;;;;;6.88;3.45;;;;;;;5.62;51.57;100529.94;4940196;28;20085;-76
2023/12/18 00:58:36;;;;;;;11.88;3.70;;;;;;;5.57;51.75;100512.81;4955739;28;20043;-74
2023/12/18 01:01:02;;;;;;;7.30;3.42;;;;;;;5.62;51.57;100526.50;4956114;28;20037;-73
2023/12/18 01:03:28;;;;;;;6.35;3.30;;;;;;;5.53;52.25;100500.84;4924627;28;20114;-76
2023/12/18 01:05:54;;;;;;;5.20;3.08;;;;;;;5.59;52.22;100509.28;4959478;28;20030;-74
2023/12/18 01:08:19;;;;;;;5.93;3.50;;;;;;;5.59;51.69;100506.69;4959378;28;20074;-74
2023/12/18 01:10:45;;;;;;;5.90;3.20;;;;;;;5.59;51.97;100509.28;4944059;28;20043;-75
2023/12/18 01:13:10;;;;;;;7.68;3.67;;;;;;;5.58;51.95;100517.09;4943655;28;20022;-74
2023/12/18 01:15:35;;;;;;;5.97;3.13;;;;;;;5.58;51.93;100517.09;4959733;28;20041;-74
2023/12/18 01:18:01;;;;;;;6.38;3.50;;;;;;;5.56;51.80;100508.53;4960072;28;20054;-74
2023/12/18 01:20:26;;;;;;;8.65;4.35;;;;;;;5.54;51.49;100503.38;4959851;28;20474;-76
2023/12/18 01:22:53;;;;;;;7.18;3.50;;;;;;;5.53;51.70;100506.03;4976816;28;20026;-75
2023/12/18 01:25:18;;;;;;;6.55;3.65;;;;;;;5.51;52.07;100506.06;4943490;28;20502;-75
2023/12/18 01:27:43;;;;;;;6.97;3.80;;;;;;;5.52;51.77;100501.72;4943194;28;20046;-75
2023/12/18 01:30:10;;;;;;;5.65;3.75;;;;;;;5.51;51.89;100505.22;4960357;28;20047;-74
2023/12/18 01:32:35;;;;;;;9.10;3.50;;;;;;;5.49;51.60;100509.56;4943614;28;20114;-75
2023/12/18 01:35:00;;;;;;;6.95;3.58;;;;;;;5.47;51.71;100514.81;4977004;28;20047;-75
2023/12/18 01:37:26;;;;;;;6.07;3.75;;;;;;;5.42;51.73;100506.31;4959304;28;20545;-75
2023/12/18 01:39:51;;;;;;;6.18;3.75;;;;;;;5.41;52.14;100505.47;4927570;28;20035;-75
2023/12/18 01:42:17;;;;;;;6.78;3.50;;;;;;;5.43;51.91;100500.25;4958898;28;20038;-75
2023/12/18 01:44:42;;;;;;;5.43;3.30;;;;;;;5.44;51.91;100505.38;4943033;28;20398;-76
2023/12/18 01:47:08;;;;;;;6.82;3.60;;;;;;;5.43;51.84;100511.44;4959058;28;20043;-74
2023/12/18 01:49:33;;;;;;;7.35;3.70;;;;;;;5.41;51.92;100508.06;4943209;28;20042;-75
2023/12/18 01:51:59;;;;;;;6.03;3.20;;;;;;;5.41;51.55;100508.06;4943190;28;20106;-76
2023/12/18 01:54:25;;;;;;;7.10;3.47;;;;;;;5.39;51.68;100508.97;4958937;28;20039;-75
2023/12/18 01:56:51;;;;;;;7.07;3.42;;;;;;;5.37;51.86;100508.16;4942768;28;20035;-75
2023/12/18 01:59:16;;;;;;;5.32;2.90;;;;;;;5.29;51.73;100490.25;4933289;29;20142;-75
2023/12/18 02:01:42;;;;;;;6.75;3.60;;;;;;;5.34;51.47;100503.06;4914821;29;20038;-76
2023/12/18 02:04:07;;;;;;;7.93;3.40;;;;;;;5.33;51.77;100493.59;4949882;29;20480;-75
2023/12/18 02:06:33;;;;;;;5.55;3.22;;;;;;;5.31;51.76;100500.56;4923516;29;20042;-75
2023/12/18 02:08:58;;;;;;;5.40;3.13;;;;;;;5.25;51.79;100488.66;4939740;29;20043;-75
2023/12/18 02:11:24;;;;;;;7.22;3.00;;;;;;;5.21;52.08;100487.84;4923892;29;20039;-75
2023/12/18 02:13:49;;;;;;;6.03;3.00;;;;;;;5.24;51.76;100486.94;4923952;29;20174;-76
2023/12/18 02:16:15;;;;;;;5.10;2.70;;;;;;;5.21;51.79;100479.25;4907003;29;20043;-74
2023/12/18 02:18:47;;;;;;;5.47;2.92;;;;;;;5.18;51.87;100472.41;4907257;29;20043;-76
2023/12/18 02:21:18;;;;;;;5.07;2.60;;;;;;;5.12;51.58;100464.78;4923769;29;20059;-74
2023/12/18 02:23:44;;;;;;;5.15;2.78;;;;;;;5.15;51.63;100469.03;4907929;29;20483;-74
2023/12/18 02:26:10;;;;;;;4.82;2.72;;;;;;;5.13;51.80;100466.50;4936004;29;20067;-75
2023/12/18 02:28:35;;;;;;;4.20;2.38;;;;;;;5.11;52.02;100462.25;4920560;29;20123;-75
2023/12/18 02:31:02;;;;;;;6.07;2.83;;;;;;;5.10;51.71;100458.81;4936431;29;20071;-75
2023/12/18 02:33:27;;;;;;;5.85;2.83;;;;;;;5.11;51.73;100457.94;4904253;29;20071;-75
2023/12/18 02:35:53;;;;;;;4.13;2.35;;;;;;;5.10;52.27;100458.81;4935382;29;20086;-74
2023/12/18 02:38:18;;;;;;;4.07;2.70;;;;;;;5.09;51.58;100457.09;4919767;29;20412;-74
2023/12/18 02:40:44;;;;;;;6.38;2.88;;;;;;;5.08;51.99;100460.59;4935956;29;20035;-76
2023/12/18 02:43:10;;;;;;;4.45;2.50;;;;;;;5.07;51.97;100467.50;4947545;29;20046;-75
2023/12/18 02:45:36;;;;;;;4.93;2.75;;;;;;;5.02;51.53;100461.59;4935694;29;20102;-76
2023/12/18 02:48:01;;;;;;;7.30;2.85;;;;;;;5.00;52.11;100460.78;4954928;29;20031;-75
2023/12/18 02:50:27;;;;;;;4.07;2.55;;;;;;;5.04;51.91;100469.31;4938570;29;20043;-76
2023/12/18 02:52:52;;;;;;;4.88;2.85;;;;;;;4.98;51.93;100464.28;4938892;29;20027;-76
2023/12/18 02:55:18;;;;;;;5.25;3.05;;;;;;;5.03;51.83;100475.41;4938929;29;20039;-74
2023/12/18 02:57:43;;;;;;;4.53;2.97;;;;;;;5.02;51.67;100465.94;4954658;29;20035;-75
2023/12/18 03:00:09;;;;;;;4.47;2.88;;;;;;;4.96;51.70;100453.97;4923035;29;20043;-75
2023/12/18 03:02:34;;;;;;;4.55;2.92;;;;;;;5.01;52.03;100462.50;4938926;29;20455;-74
2023/12/18 03:05:00;;;;;;;5.68;3.17;;;;;;;5.00;51.73;100457.38;4937985;29;20101;-75
2023/12/18 03:07:26;;;;;;;5.18;3.47;;;;;;;4.94;51.72;100454.94;4938049;29;20042;-74
2023/12/18 03:09:51;;;;;;;5.55;3.78;;;;;;;4.99;52.10;100464.25;4938991;29;20105;-80
2023/12/18 03:12:17;;;;;;;4.78;3.55;;;;;;;4.94;51.62;100449.75;4955432;28;20031;-74
2023/12/18 03:14:42;;;;;;;8.18;3.88;;;;;;;4.99;51.60;100456.50;4954712;29;20387;-74
2023/12/18 03:17:07;;;;;;;7.88;4.35;;;;;;;4.96;51.89;100453.97;4955537;28;20035;-74
2023/12/18 03:19:33;;;;;;;6.05;4.57;;;;;;;4.97;51.63;100454.84;4953584;29;20570;-73
2023/12/18 03:21:59;;;;;;;8.77;4.30;;;;;;;4.94;51.76;100460.09;4953684;29;20043;-74
2023/12/18 03:24:25;;;;;;;6.25;4.47;;;;;;;4.90;51.94;100448.97;4937635;29;20051;-74
2023/12/18 03:26:50;;;;;;;5.63;4.25;;;;;;;4.92;51.66;100454.97;4938257;28;20059;-74
2023/12/18 03:29:16;;;;;;;7.13;4.53;;;;;;;4.88;51.71;100443.81;4953251;29;20039;-75
2023/12/18 03:31:41;;;;;;;6.22;4.80;;;;;;;4.89;51.97;100442.09;4937798;29;20047;-74
2023/12/18 03:34:06;;;;;;;7.20;4.97;;;;;;;4.92;51.61;100446.34;4955146;28;20502;-70
2023/12/18 03:36:32;;;;;;;7.15;4.90;;;;;;;4.89;51.51;100448.13;4953215;29;20047;-73
2023/12/18 03:38:57;;;;;;;8.43;4.97;;;;;;;4.85;52.04;100441.31;4938214;29;20031;-75
2023/12/18 03:41:23;;;;;;;6.82;5.07;;;;;;;4.84;51.57;100446.56;4922128;29;20031;-72
2023/12/18 03:43:50;;;;;;;7.22;5.07;;;;;;;4.83;51.67;100448.28;4953845;29;20061;-73
2023/12/18 03:46:16;;;;;;;7.05;5.05;;;;;;;4.87;51.89;100451.63;4922574;29;20419;-73
2023/12/18 03:48:41;;;;;;;7.22;5.22;;;;;;;4.83;51.86;100444.84;4920863;29;20039;-72
2023/12/18 03:51:07;;;;;;;8.77;5.88;;;;;;;4.85;51.52;100450.81;4953889;29;20111;-72
2023/12/18 03:53:32;;;;;;;8.95;5.50;;;;;;;4.82;51.75;100440.53;4953237;29;20491;-72
2023/12/18 03:55:57;;;;;;;8.38;5.57;;;;;;;4.85;51.74;100446.47;4934156;29;20036;-72
2023/12/18 03:58:23;;;;;;;7.25;5.45;;;;;;;4.80;51.81;100440.59;4918014;29;20094;-72
2023/12/18 04:00:49;;;;;;;7.70;5.80;;;;;;;4.84;52.17;100452.56;4903125;29;20058;-72
2023/12/18 04:03:14;;;;;;;9.27;5.90;;;;;;;4.82;51.94;100445.72;4918731;29;20024;-74
2023/12/18 04:05:40;;;;;;;8.25;6.03;;;;;;;4.82;52.32;100440.53;4902789;29;20039;-75
2023/12/18 04:08:05;;;;;;;11.45;6.95;;;;;;;4.81;51.85;100444.03;4902614;29;20533;-70
2023/12/18 04:10:31;;;;;;;9.40;6.43;;;;;;;4.74;52.20;100427.81;4902659;29;20028;-71
2023/12/18 04:12:56;;;;;;;9.75;6.10;;;;;;;4.77;52.10;100434.66;4918528;29;20035;-70
2023/12/18 04:15:22;;;;;;;9.10;6.45;;;;;;;4.80;52.35;100453.53;4934159;29;20040;-72
2023/12/18 04:17:47;;;;;;;9.98;5.70;;;;;;;4.80;51.88;100455.28;4941449;29;20101;-72
2023/12/18 04:20:13;;;;;;;7.97;5.70;;;;;;;4.78;52.37;100463.06;4954806;28;20035;-71
2023/12/18 04:22:38;;;;;;;9.80;6.38;;;;;;;4.77;52.28;100457.94;4953173;29;20038;-72
2023/12/18 04:25:04;;;;;;;8.30;5.88;;;;;;;4.76;51.75;100453.63;4937450;29;20055;-72
2023/12/18 04:27:29;;;;;;;7.80;5.88;;;;;;;4.74;52.30;100451.09;4952996;29;20035;-71
2023/12/18 04:29:55;;;;;;;7.78;5.53;;;;;;;4.75;52.15;100441.59;4936367;29;20054;-73
2023/12/18 04:32:20;;;;;;;10.82;5.97;;;;;;;4.73;52.05;100436.47;4936630;29;20043;-72
2023/12/18 04:34:46;;;;;;;9.75;6.05;;;;;;;4.66;51.97;100428.00;4936848;29;20035;-72
2023/12/18 04:37:11;;;;;;;8.70;5.78;;;;;;;4.65;52.14;100433.19;4920963;29;20039;-75
2023/12/18 04:39:37;;;;;;;8.35;5.65;;;;;;;4.64;52.03;100434.94;4953278;28;20067;-74
2023/12/18 04:42:03;;;;;;;7.75;5.80;;;;;;;4.64;52.17;100439.28;4920975;29;20039;-73
2023/12/18 04:44:28;;;;;;;8.43;5.82;;;;;;;4.66;52.22;100446.09;4953115;29;20045;-74
2023/12/18 04:46:54;;;;;;;9.20;5.93;;;;;;;4.62;52.10;100441.06;4937182;29;20120;-80
2023/12/18 04:49:20;;;;;;;8.18;5.35;;;;;;;4.66;51.90;100446.09;4937230;29;20032;-76
2023/12/18 04:51:45;;;;;;;7.35;5.32;;;;;;;4.61;52.27;100432.44;4936796;29;20055;-75
2023/12/18 04:54:11;;;;;;;8.50;5.40;;;;;;;4.65;51.83;100438.38;4936704;29;20050;-74
2023/12/18 04:56:36;;;;;;;8.23;5.55;;;;;;;4.60;52.08;100429.88;4954388;28;20339;-75
2023/12/18 04:59:02;;;;;;;10.50;6.05;;;;;;;4.62;51.98;100431.56;4937236;29;20039;-76
2023/12/18 05:01:28;;;;;;;8.82;5.40;;;;;;;4.62;52.05;100425.53;4920044;29;20031;-80
2023/12/18 05:03:54;;;;;;;25.63;5.03;;;;;;;4.91;68.15;100423.94;4935278;29;20031;-74
2023/12/18 05:06:24;;;;;;;7.47;4.18;;;;;;;5.44;74.80;100425.09;4952063;29;20031;-75
2023/12/18 05:08:49;;;;;;;13.05;4.63;;;;;;;5.56;73.46;100418.69;4920702;29;20043;-75
2023/12/18 05:11:18;;;;;;;9.38;4.95;;;;;;;5.57;68.19;100433.34;4936939;29;20033;-75
2023/12/18 05:13:44;;;;;;;8.68;5.55;;;;;;;5.50;65.16;100428.38;4936377;29;20102;-74
2023/12/18 05:16:10;;;;;;;10.50;5.70;;;;;;;5.51;65.55;100422.31;4936941;29;20035;-74
2023/12/18 05:18:36;;;;;;;10.98;6.30;;;;;;;5.45;64.36;100410.38;4952915;29;20475;-73
2023/12/18 05:21:02;;;;;;;9.75;6.15;;;;;;;5.37;62.69;100405.41;4952388;29;20027;-73
2023/12/18 05:23:28;;;;;;;12.82;6.50;;;;;;;5.30;62.56;100413.41;4926108;29;20111;-74
2023/12/18 05:25:53;;;;;;;9.18;5.45;;;;;;;5.23;61.91;100411.00;4935997;29;20059;-74
2023/12/18 05:28:19;;;;;;;11.15;6.43;;;;;;;5.17;62.21;100408.59;4953789;28;20059;-74
2023/12/18 05:30:44;;;;;;;8.48;5.97;;;;;;;5.06;61.17;100390.75;4953794;28;20403;-74
2023/12/18 05:33:10;;;;;;;9.18;5.72;;;;;;;5.02;61.04;100396.03;4920865;29;20066;-74
2023/12/18 05:35:35;;;;;;;10.02;5.80;;;;;;;5.00;60.77;100396.09;4936239;29;20040;-74
2023/12/18 05:38:01;;;;;;;7.80;5.40;;;;;;;4.99;60.55;100399.56;4920036;29;20485;-74
2023/12/18 05:40:26;;;;;;;9.35;5.95;;;;;;;4.93;60.11;100398.88;4936511;29;20125;-74
2023/12/18 05:42:52;;;;;;;8.10;5.70;;;;;;;4.96;59.60;100403.97;4921108;29;20035;-73
2023/12/18 05:45:17;;;;;;;8.32;5.40;;;;;;;4.93;59.40;100404.06;4936204;29;20050;-74
2023/12/18 05:47:43;;;;;;;7.70;5.00;;;;;;;4.89;59.44;100400.69;4920632;29;20043;-74
2023/12/18 05:50:08;;;;;;;9.48;5.00;;;;;;;4.98;59.69;100407.34;4919364;28;20039;-75
2023/12/18 05:52:34;;;;;;;7.63;4.72;;;;;;;5.25;58.57;100411.81;4954256;29;20117;-74
2023/12/18 05:54:59;;;;;;;8.98;4.88;;;;;;;5.60;57.64;100412.53;4955501;29;20035;-75
2023/12/18 05:57:25;;;;;;;7.55;4.50;;;;;;;6.06;55.85;100418.13;4923360;29;20062;-77
2023/12/18 05:59:50;;;;;;;8.10;5.07;;;;;;;6.61;54.99;100428.50;4944579;29;20035;-74
2023/12/18 06:02:16;;;;;;;7.82;5.20;;;;;;;7.19;53.36;100430.84;4945677;29;20043;-75
2023/12/18 06:04:43;;;;;;;7.25;4.70;;;;;;;7.77;51.79;100414.06;4936132;29;20039;-77
2023/12/18 06:07:09;;;;;;;7.45;4.38;;;;;;;8.48;50.24;100425.16;4889752;29;20035;-75
2023/12/18 06:09:35;;;;;;;6.88;4.35;;;;;;;9.20;48.36;100428.25;4920778;29;20531;-75
2023/12/18 06:12:00;;;;;;;9.95;3.88;;;;;;;9.89;46.60;100422.53;4921045;29;20035;-75
2023/12/18 06:14:26;;;;;;;7.35;4.28;;;;;;;10.63;44.89;100426.88;4936523;29;20031;-76
2023/12/18 06:16:51;;;;;;;8.32;4.60;;;;;;;11.39;43.22;100425.66;4920512;29;20043;-74
2023/12/18 06:19:16;;;;;;;7.20;4.68;;;;;;;12.15;41.43;100429.47;4920182;29;20046;-78
2023/12/18 06:21:42;;;;;;;9.48;5.78;;;;;;;13.07;39.08;100434.63;4954035;29;20042;-74
2023/12/18 06:24:08;;;;;;;10.18;6.78;;;;;;;13.85;37.27;100426.41;4939412;29;20475;-75
2023/12/18 06:26:33;;;;;;;10.38;7.88;;;;;;;14.67;34.98;100436.91;4955735;28;20118;-75
2023/12/18 06:28:59;;;;;;;12.05;8.00;;;;;;;15.46;33.95;100428.97;4939499;29;20506;-75
2023/12/18 06:31:24;;;;;;;14.30;9.10;;;;;;;16.19;32.62;100429.97;4955287;29;20042;-78
2023/12/18 06:33:50;;;;;;;13.65;9.45;;;;;;;17.04;31.07;100435.09;4920224;29;20115;-76
2023/12/18 06:36:17;;;;;;;15.65;11.07;;;;;;;17.73;29.83;100424.44;4951722;29;20487;-78
2023/12/18 06:38:43;;;;;;;21.73;12.48;;;;;;;18.35;28.90;100423.97;4937971;29;20075;-76
2023/12/18 06:41:08;;;;;;;20.42;12.32;;;;;;;18.94;27.79;100433.19;4921221;29;20066;-74
2023/12/18 06:43:34;;;;;;;25.80;12.48;;;;;;;19.50;26.91;100427.50;4938580;29;20028;-75
2023/12/18 06:45:59;;;;;;;20.55;13.50;;;;;;;19.79;26.16;100429.44;4914734;29;20126;-75
2023/12/18 06:48:25;;;;;;;23.73;14.23;;;;;;;20.08;25.77;100428.66;4953006;29;20039;-77
2023/12/18 06:50:51;;;;;;;26.65;13.30;;;;;;;20.16;25.69;100418.22;4907460;29;20035;-74
2023/12/18 06:53:16;;;;;;;21.65;14.32;;;;;;;20.28;25.55;100426.03;4954951;29;20027;-75
2023/12/18 06:55:42;;;;;;;21.73;15.07;;;;;;;20.23;25.49;100435.25;4915951;29;20039;-75
2023/12/18 06:58:07;;;;;;;23.13;15.13;;;;;;;20.13;25.78;100418.50;4919839;29;20027;-75
2023/12/18 07:00:33;;;;;;;12.70;8.80;;;;;;;19.99;32.97;100427.69;4938159;29;20420;-75
2023/12/18 07:02:58;;;;;;;18.25;10.95;;;;;;;19.97;30.41;100421.69;4935457;29;20554;-74
2023/12/18 07:05:24;;;;;;;19.08;12.18;;;;;;;19.87;29.55;100415.50;4903902;29;20039;-75
2023/12/18 07:07:50;;;;;;;21.85;12.77;;;;;;;19.71;28.88;100410.69;4936939;29;20043;-76
2023/12/18 07:10:16;;;;;;;19.48;13.27;;;;;;;19.62;28.55;100399.09;4904160;29;20050;-75
2023/12/18 07:12:41;;;;;;;22.35;14.40;;;;;;;19.56;28.44;100404.94;4935386;29;20436;-75
2023/12/18 07:15:07;;;;;;;26.23;14.95;;;;;;;19.55;27.66;100410.38;4919730;29;20404;-75
2023/12/18 07:17:32;;;;;;;26.60;15.23;;;;;;;19.48;27.48;100413.56;4953296;29;20107;-75
2023/12/18 07:19:58;;;;;;;31.88;13.35;;;;;;;19.41;31.15;100409.75;4955476;29;20348;-74
2023/12/18 07:22:23;;;;;;;27.92;17.52;;;;;;;19.30;28.54;100405.38;4938836;29;20038;-76
2023/12/18 07:24:49;;;;;;;34.63;20.92;;;;;;;18.37;31.57;100401.72;4939032;28;20035;-75
2023/12/18 07:27:14;;;;;;;37.63;20.77;;;;;;;18.49;31.88;100399.03;4956627;28;20043;-78
2023/12/18 07:29:40;;;;;;;29.65;19.10;;;;;;;18.74;31.94;100397.84;4974775;28;20418;-75
2023/12/18 07:32:06;;;;;;;38.30;20.48;;;;;;;18.98;30.42;100395.75;4957447;28;20054;-76
2023/12/18 07:34:31;;;;;;;30.05;20.38;;;;;;;19.24;28.82;100384.75;4954461;28;20031;-75
2023/12/18 07:36:57;;;;;;;38.55;22.17;;;;;;;19.43;27.70;100380.50;4948605;28;20034;-78
2023/12/18 07:39:22;;;;;;;35.95;22.00;;;;;;;19.49;26.90;100372.84;4957245;28;20414;-78
2023/12/18 07:41:48;;;;;;;42.45;22.60;;;;;;;19.67;26.38;100367.75;4923122;28;20046;-77
2023/12/18 07:44:13;;;;;;;41.10;23.25;;;;;;;19.80;25.60;100369.34;4952631;28;20490;-74
2023/12/18 07:46:39;;;;;;;43.38;23.27;;;;;;;19.92;25.33;100376.19;4974325;28;20042;-76
2023/12/18 07:49:05;;;;;;;41.47;24.48;;;;;;;20.06;24.81;100380.25;4941074;28;20039;-75
2023/12/18 07:51:31;;;;;;;41.03;24.17;;;;;;;20.23;24.76;100381.38;4925244;28;20023;-73
2023/12/18 07:53:56;;;;;;;44.17;26.20;;;;;;;20.25;24.31;100368.81;4940233;28;20049;-73
2023/12/18 07:56:22;;;;;;;44.28;25.25;;;;;;;20.47;24.27;100380.13;4956931;28;20062;-73
2023/12/18 07:58:47;;;;;;;49.03;25.83;;;;;;;20.57;24.10;100360.56;4940879;28;20034;-74
2023/12/18 08:01:16;;;;;;;41.53;25.30;;;;;;;20.66;23.98;100369.50;4939942;28;20119;-74
2023/12/18 08:03:42;;;;;;;49.72;25.77;;;;;;;20.76;23.90;100372.97;4938620;28;20026;-74
2023/12/18 08:06:07;;;;;;;45.63;26.85;;;;;;;20.81;23.81;100366.38;4971571;28;20509;-74
2023/12/18 08:08:33;;;;;;;51.53;27.02;;;;;;;20.89;23.77;100369.16;4954863;28;20066;-77
2023/12/18 08:10:58;;;;;;;48.25;27.85;;;;;;;20.91;23.64;100373.34;4954905;28;20039;-77
2023/12/18 08:13:24;;;;;;;50.90;27.73;;;;;;;20.97;23.63;100369.28;4954655;28;20697;-76
2023/12/18 08:15:50;;;;;;;41.75;26.55;;;;;;;21.00;23.54;100368.16;4938649;28;20030;-74
2023/12/18 08:18:16;;;;;;;46.40;27.00;;;;;;;21.05;23.34;100366.75;4940461;28;20471;-74
2023/12/18 08:20:43;;;;;;;59.30;28.05;;;;;;;21.05;23.34;100371.22;4955685;28;20039;-75
2023/12/18 08:23:08;;;;;;;54.58;27.55;;;;;;;21.05;23.29;100371.22;4940707;28;20043;-74
2023/12/18 08:25:34;;;;;;;44.97;25.65;;;;;;;21.14;23.42;100370.34;4940192;28;20050;-76
2023/12/18 08:27:59;;;;;;;47.97;28.85;;;;;;;21.17;22.55;100375.34;4955836;28;20102;-74
2023/12/18 08:30:25;;;;;;;57.35;29.92;;;;;;;21.25;23.41;100361.34;4973478;28;20062;-73
2023/12/18 08:32:50;;;;;;;53.10;28.73;;;;;;;21.33;23.02;100361.44;4956582;28;20081;-74
2023/12/18 08:35:16;;;;;;;55.88;29.00;;;;;;;21.41;22.87;100369.53;4974091;28;20046;-74
2023/12/18 08:37:41;;;;;;;60.58;28.00;;;;;;;21.50;23.02;100367.84;4939749;28;20038;-74
2023/12/18 08:40:07;;;;;;;48.67;25.90;;;;;;;21.62;22.81;100369.31;4973541;28;20057;-73
2023/12/18 08:42:33;;;;;;;60.08;27.40;;;;;;;21.75;22.64;100368.94;4939533;28;20097;-73
2023/12/18 08:44:58;;;;;;;66.43;26.90;;;;;;;21.88;22.50;100367.75;4973377;28;20031;-75
2023/12/18 08:47:24;;;;;;;52.78;26.83;;;;;;;22.08;22.22;100363.13;4955460;28;20515;-73
2023/12/18 08:49:49;;;;;;;53.35;27.35;;;;;;;22.44;22.02;100357.78;4956273;28;20034;-75
2023/12/18 08:52:15;;;;;;;48.50;25.77;;;;;;;22.75;21.66;100360.84;4956026;28;20090;-74
2023/12/18 08:54:40;;;;;;;45.03;24.13;;;;;;;23.27;20.98;100357.34;4924396;28;20066;-74
2023/12/18 08:57:06;;;;;;;52.40;24.70;;;;;;;23.59;20.28;100348.59;4939870;28;20097;-73
2023/12/18 08:59:31;;;;;;;47.78;23.45;;;;;;;23.66;20.44;100351.47;4955871;28;20418;-73
2023/12/18 09:01:56;;;;;;;46.47;22.92;;;;;;;23.73;20.29;100356.97;4956095;28;20035;-75
2023/12/18 09:04:22;;;;;;;43.92;22.88;;;;;;;23.62;20.59;100350.94;4956036;28;20470;-75
2023/12/18 09:06:47;;;;;;;42.22;21.63;;;;;;;23.61;20.59;100340.44;4940509;28;20043;-78
2023/12/18 09:09:13;;;;;;;38.35;22.52;;;;;;;23.66;20.39;100338.16;4956059;28;20046;-78
2023/12/18 09:11:38;;;;;;;41.40;21.45;;;;;;;23.66;20.33;100330.16;4956476;28;20067;-77
2023/12/18 09:14:04;;;;;;;39.35;21.48;;;;;;;23.71;20.56;100327.00;4955862;28;20046;-77
2023/12/18 09:16:29;;;;;;;39.60;21.40;;;;;;;23.62;20.33;100326.94;4939552;28;20046;-77
2023/12/18 09:18:56;;;;;;;40.47;21.50;;;;;;;23.57;20.68;100312.47;4956438;28;20042;-77
2023/12/18 09:21:21;;;;;;;43.38;21.50;;;;;;;23.52;20.53;100309.47;4956236;28;20086;-78
2023/12/18 09:23:47;;;;;;;35.75;21.85;;;;;;;23.51;20.45;100302.44;4939809;28;20027;-77
2023/12/18 09:26:13;;;;;;;36.88;21.55;;;;;;;23.43;20.70;100300.59;4939943;28;20050;-77
2023/12/18 09:28:39;;;;;;;42.40;20.98;;;;;;;23.34;20.83;100296.25;4959270;28;20133;-76
2023/12/18 09:31:08;;;;;;;39.80;21.63;;;;;;;23.29;20.92;100299.38;4959920;28;20470;-75
2023/12/18 09:33:33;;;;;;;50.35;21.83;;;;;;;23.43;20.56;100285.44;4944450;28;20027;-79
2023/12/18 09:36:02;;;;;;;41.55;20.98;;;;;;;23.79;20.40;100284.34;4943764;28;20569;-75
2023/12/18 09:38:28;;;;;;;44.83;21.90;;;;;;;24.37;19.71;100283.34;4958855;28;20042;-75
2023/12/18 09:40:53;;;;;;;41.20;20.38;;;;;;;25.13;18.91;100274.13;4943436;28;20549;-75
2023/12/18 09:43:19;;;;;;;32.15;19.10;;;;;;;25.63;18.54;100272.84;4943497;28;20039;-74
2023/12/18 09:45:48;;;;;;;35.25;19.15;;;;;;;26.64;17.66;100278.00;4943082;28;20399;-75
2023/12/18 09:48:14;;;;;;;34.58;18.45;;;;;;;27.30;17.04;100266.50;4943667;28;20038;-76
2023/12/18 09:50:40;;;;;;;34.15;18.65;;;;;;;27.97;16.53;100266.19;4927404;28;20034;-76
2023/12/18 09:53:10;;;;;;;31.55;18.17;;;;;;;28.57;15.86;100259.56;4943552;28;20035;-77
2023/12/18 09:55:35;;;;;;;38.85;17.70;;;;;;;28.86;15.55;100250.44;4959322;28;20115;-76
2023/12/18 09:58:01;;;;;;;36.53;18.38;;;;;;;29.05;15.67;100246.19;4942779;28;20123;-74
2023/12/18 10:00:27;;;;;;;34.58;16.88;;;;;;;29.37;15.06;100255.41;4943400;28;20487;-75
2023/12/18 10:02:54;;;;;;;27.17;16.63;;;;;;;29.69;14.61;100262.91;4943200;28;20034;-74
2023/12/18 10:05:19;;;;;;;29.38;16.30;;;;;;;29.61;15.19;100253.19;4943522;28;20030;-75
2023/12/18 10:07:45;;;;;;;32.13;15.93;;;;;;;29.75;15.14;100254.03;4976511;28;20039;-75
2023/12/18 10:10:11;;;;;;;28.20;15.70;;;;;;;29.83;14.99;100248.47;4942471;28;20117;-75
2023/12/18 10:12:38;;;;;;;27.85;15.85;;;;;;;29.94;14.57;100250.53;4958484;28;20125;-76
2023/12/18 10:15:06;;;;;;;29.25;16.33;;;;;;;29.90;14.67;100243.06;4943069;28;20483;-76
2023/12/18 10:17:33;;;;;;;27.65;15.90;;;;;;;29.83;14.73;100244.94;4942977;28;20031;-76
2023/12/18 10:20:02;;;;;;;30.63;15.17;;;;;;;29.36;15.09;100239.47;4942904;28;20081;-75
2023/12/18 10:22:28;;;;;;;30.08;15.80;;;;;;;28.88;15.43;100241.16;4943216;28;20479;-77
2023/12/18 10:24:53;;;;;;;30.23;15.55;;;;;;;28.22;16.06;100233.53;4942489;28;20125;-77
2023/12/18 10:27:19;;;;;;;27.95;15.68;;;;;;;27.62;16.67;100231.16;4958118;28;20051;-75
2023/12/18 10:29:45;;;;;;;26.23;16.02;;;;;;;27.02;17.13;100230.50;4958761;28;20063;-76
2023/12/18 10:32:11;;;;;;;33.22;16.27;;;;;;;26.31;17.61;100235.53;4943234;28;20023;-76
2023/12/18 10:34:37;;;;;;;31.65;16.20;;;;;;;25.87;18.33;100221.03;4942593;28;20031;-74
2023/12/18 10:37:03;;;;;;;28.45;16.20;;;;;;;25.43;18.42;100225.22;4942246;28;20030;-73
2023/12/18 10:39:29;;;;;;;32.70;16.63;;;;;;;24.93;19.12;100216.63;4943048;28;20100;-75
2023/12/18 10:41:56;;;;;;;29.38;16.13;;;;;;;24.52;19.71;100221.25;4942620;28;20030;-76
2023/12/18 10:44:21;;;;;;;26.73;16.00;;;;;;;24.17;20.10;100213.50;4942921;28;20027;-77
2023/12/18 10:46:49;;;;;;;29.40;16.55;;;;;;;23.76;20.25;100205.50;4942165;28;20038;-75
2023/12/18 10:49:16;;;;;;;26.30;15.27;;;;;;;23.49;20.80;100201.34;4942198;28;20061;-76
2023/12/18 10:51:42;;;;;;;32.15;16.83;;;;;;;23.24;20.88;100197.81;4942486;28;20121;-75
2023/12/18 10:54:08;;;;;;;31.20;16.50;;;;;;;22.99;21.33;100196.88;4925854;28;20039;-75
2023/12/18 10:56:33;;;;;;;29.67;17.13;;;;;;;22.75;21.63;100190.50;4942319;28;20384;-75
2023/12/18 10:58:59;;;;;;;29.48;16.70;;;;;;;22.51;22.07;100189.38;4942665;28;20058;-77
2023/12/18 11:01:25;;;;;;;26.70;17.02;;;;;;;22.39;22.33;100185.34;4942626;28;20031;-76
2023/12/18 11:03:50;;;;;;;28.15;16.48;;;;;;;22.05;22.49;100184.28;4941974;28;20387;-76
2023/12/18 11:06:17;;;;;;;26.20;15.85;;;;;;;21.88;22.79;100187.81;4942217;28;20085;-76
2023/12/18 11:08:43;;;;;;;25.50;16.05;;;;;;;21.67;23.15;100170.38;4926695;28;20070;-76
2023/12/18 11:11:09;;;;;;;28.60;15.32;;;;;;;21.41;23.42;100167.66;4942378;28;20041;-75
2023/12/18 11:13:42;;;;;;;21.88;14.77;;;;;;;21.20;23.76;100153.84;4941289;28;20035;-77